Main page
METAR-TAF:

METAR-TAF

Airports :

Ioannina National Airport

Ioannina, Greece

latitude: 39-41-47N, longitude: 20-49-21E, elevation: 475 m

Current weather observation

The report was made 1 hour and 8 minutes ago, at 11:50 UTC
Temperature 32°C
Humidity 41%
Pressure 1018 hPa
Visibility 10 km or more
Scattered clouds at a height of 3500 ft

METAR: LGIO 221150Z /////KT 9999 SCT035 32/17 Q1018

Time: 15:58 (12:58 UTC)

Forecast

The report was made 1 hour and 58 minutes ago, at 11:00 UTC
Forecast valid from 22 at 12 UTC to 22 at 21 UTC
Wind 3 kt from variable directions
Visibility 10 km or more
Few clouds at a height of 2500 ft
Scattered clouds at a height of 8000 ft
Becoming
from 22 at 18 UTC to 22 at 20 UTC
Visibility 10 km or more
no clouds below 1500 m and no cumulonimbus

TAF: LGIO 221100Z 2212/2221 VRB03KT 9999 FEW025 SCT080 BECMG 2218/2220 CAVOK

Weather observations and forecasts of more than 4000 airports (METAR and TAF reports).

The available stations are represented by yellow and red dots on the map.

Hover mouse over dot to see the name of the station.

Then click to see weather observations and forecasts.

To change the map : click on the green buttons with a black cross to zoom in, on the green button with a dash to zoom out, or on the green arrows for adjacent maps.


METAR-TAF: